Allons, Tennessee
Current Conditions -  °F | °C
As of 4:15 PM on Monday 20 Oct 2014 (Local Time) from KSRB Reporting Station
Broken Clouds Broken Clouds  
Wind Chill: 19°   Ceiling: 8000
Heat Index: 19°   Visibility: 10mi
Dew Point: 11°   Wind: 8mph
Humidity: 60%   Direction: 250°WSW
Pressure: 30"   Gusts: NA
Location:  36.44°N, 85.34°W
Report Text: KSRB 202115Z AUTO 25007KT 10SM BKN080 BKN110 19/11 A3000 RMK
Loading
Personal Weather Stations






























Interactive Weather Map New forecast layout! Learn more

10-Day Weather Forecast

Advertisements
Track Severe Weather on mobile